Albany, New Hampshire
Current Conditions -  °F | °C
As of 4:54 PM on Saturday 25 Oct 2014 (Local Time) from KIZG Reporting Station
Clear Clear  
Wind Chill: 58°   Ceiling: Unl
Heat Index: 58°   Visibility: 10mi
Dew Point: 40°   Wind: 0mph
Humidity: 51%   Direction: NA
Pressure: 29.54"   Gusts: NA
Location:  43.9735°N, 71.2576°W
Report Text: KIZG 252054Z AUTO 00000KT 10SM CLR 14/04 A2954 RMK AO2 SLP005 T01440044 56016
Loading
Personal Weather Stations






























Interactive Weather Map
Tropical Storm Tracking
New forecast layout! Learn more

10-Day Weather Forecast

Advertisements
Track Severe Weather on mobile